Time;durP1;ratioP1;P1;durP2;ratioP2;P2;SDS_P1;SDS_P2;PMS_P1;PMS_P2;Temp;Humidity;BMP_temperature;BMP_pressure;BME280_temperature;BME280_humidity;BME280_pressure;Samples;Min_cycle;Max_cycle;Signal;HPM_P1;HPM_P2
2021/03/14 00:02:17;;;;;;;1.57;1.03;;;6.00;99.90;;;;;;5073454;28;20439;-64
2021/03/14 00:04:43;;;;;;;0.70;0.60;;;6.10;99.90;;;;;;5073245;28;20223;-64
2021/03/14 00:07:08;;;;;;;1.40;0.70;;;6.20;99.90;;;;;;5071954;28;20408;-64
2021/03/14 00:09:34;;;;;;;2.00;0.70;;;6.30;99.90;;;;;;5073240;28;20170;-64
2021/03/14 00:12:00;;;;;;;1.10;0.77;;;6.20;99.90;;;;;;5079851;28;20546;-64
2021/03/14 00:14:26;;;;;;;0.80;0.67;;;6.30;99.90;;;;;;5083189;28;20173;-64
2021/03/14 00:16:52;;;;;;;0.97;0.73;;;6.40;99.90;;;;;;5072169;28;20443;-64
2021/03/14 00:19:18;;;;;;;1.47;0.90;;;6.50;99.90;;;;;;5079275;28;20185;-64
2021/03/14 00:21:44;;;;;;;1.53;0.80;;;6.70;99.90;;;;;;5073385;28;20415;-64
2021/03/14 00:24:10;;;;;;;1.13;0.70;;;6.70;99.90;;;;;;5072691;28;20495;-64
2021/03/14 00:26:36;;;;;;;2.40;0.93;;;6.70;99.90;;;;;;5071732;28;20443;-64
2021/03/14 00:29:03;;;;;;;1.03;0.77;;;6.50;99.90;;;;;;5072220;28;20194;-64
2021/03/14 00:31:28;;;;;;;1.50;0.80;;;6.40;99.90;;;;;;5071537;28;20555;-64
2021/03/14 00:33:54;;;;;;;0.90;0.63;;;6.30;99.90;;;;;;5072893;28;20408;-64
2021/03/14 00:36:20;;;;;;;2.17;0.70;;;6.40;99.90;;;;;;5075195;28;20200;-64
2021/03/14 00:38:45;;;;;;;2.47;1.00;;;6.30;99.90;;;;;;5093003;28;20669;-64
2021/03/14 00:41:11;;;;;;;0.80;0.70;;;6.10;99.90;;;;;;5093505;28;20176;-64
2021/03/14 00:43:37;;;;;;;3.00;0.97;;;6.20;99.90;;;;;;5089737;28;20182;-64
2021/03/14 00:46:02;;;;;;;1.43;0.87;;;6.10;99.90;;;;;;5082647;28;20428;-64
2021/03/14 00:48:28;;;;;;;1.00;0.90;;;6.10;99.90;;;;;;5083215;28;20208;-64
2021/03/14 00:50:54;;;;;;;1.63;0.70;;;6.10;99.90;;;;;;5076604;28;20205;-63
2021/03/14 00:53:20;;;;;;;2.23;0.90;;;5.90;99.90;;;;;;5076745;28;20174;-64
2021/03/14 00:55:45;;;;;;;2.13;0.80;;;5.80;99.90;;;;;;5076458;28;20622;-63
2021/03/14 00:58:11;;;;;;;1.50;0.57;;;5.60;99.90;;;;;;5069291;28;20573;-63
2021/03/14 01:00:37;;;;;;;0.87;0.57;;;5.50;99.90;;;;;;5076676;28;20213;-63
2021/03/14 01:03:03;;;;;;;0.80;0.70;;;5.70;99.90;;;;;;5076734;28;20176;-63
2021/03/14 01:05:29;;;;;;;1.87;0.50;;;5.90;99.90;;;;;;5076530;28;20619;-64
2021/03/14 01:07:55;;;;;;;1.30;0.60;;;5.70;99.90;;;;;;5059157;28;20516;-64
2021/03/14 01:10:21;;;;;;;0.87;0.70;;;5.70;99.90;;;;;;5072764;28;20455;-64
2021/03/14 01:12:46;;;;;;;0.67;0.50;;;5.70;99.90;;;;;;5089530;28;20181;-63
2021/03/14 01:15:14;;;;;;;0.77;0.50;;;5.50;99.90;;;;;;5076335;28;20276;-64
2021/03/14 01:17:40;;;;;;;0.73;0.60;;;5.60;99.90;;;;;;5074692;28;20744;-66
2021/03/14 01:20:09;;;;;;;1.57;0.60;;;5.50;99.90;;;;;;5093301;28;20449;-63
2021/03/14 01:22:34;;;;;;;0.63;0.50;;;5.60;99.90;;;;;;5096397;28;20767;-64
2021/03/14 01:25:01;;;;;;;0.70;0.50;;;5.60;99.90;;;;;;5090969;28;20440;-64
2021/03/14 01:27:26;;;;;;;0.70;0.50;;;5.60;99.90;;;;;;5080041;28;20190;-64
2021/03/14 01:29:52;;;;;;;0.73;0.53;;;5.70;99.90;;;;;;5088013;28;20441;-63
2021/03/14 01:32:18;;;;;;;0.70;0.53;;;5.70;99.90;;;;;;5096402;28;20523;-63
2021/03/14 01:34:43;;;;;;;0.80;0.50;;;5.80;99.90;;;;;;5096697;28;20601;-64
2021/03/14 01:37:09;;;;;;;0.87;0.50;;;5.80;99.90;;;;;;5078808;28;20674;-64
2021/03/14 01:39:34;;;;;;;0.70;0.57;;;5.70;99.90;;;;;;5075538;28;20235;-64
2021/03/14 01:42:00;;;;;;;0.67;0.50;;;5.50;99.90;;;;;;5078218;28;20248;-64
2021/03/14 01:44:25;;;;;;;0.83;0.43;;;5.60;99.90;;;;;;5090423;28;20755;-64
2021/03/14 01:46:51;;;;;;;0.70;0.50;;;5.60;99.90;;;;;;5082019;28;20242;-65
2021/03/14 01:49:17;;;;;;;0.87;0.70;;;5.50;99.90;;;;;;5056675;28;20271;-64
2021/03/14 01:51:43;;;;;;;0.70;0.60;;;5.70;99.90;;;;;;5075274;28;20207;-64
2021/03/14 01:54:09;;;;;;;1.13;0.70;;;5.70;99.90;;;;;;5056480;28;20174;-63
2021/03/14 01:56:35;;;;;;;0.60;0.50;;;5.90;99.90;;;;;;5089530;22;20497;-64
2021/03/14 01:59:02;;;;;;;0.70;0.50;;;5.80;99.90;;;;;;5064102;28;20549;-62
2021/03/14 02:01:28;;;;;;;0.70;0.50;;;5.80;99.90;;;;;;5073693;28;20408;-62
2021/03/14 02:03:53;;;;;;;0.73;0.60;;;5.90;99.90;;;;;;5068634;28;20775;-62
2021/03/14 02:06:19;;;;;;;0.70;0.60;;;5.60;99.90;;;;;;5071462;28;20562;-62
2021/03/14 02:08:44;;;;;;;0.80;0.60;;;5.60;99.90;;;;;;5055088;28;20188;-64
2021/03/14 02:11:11;;;;;;;1.03;0.60;;;5.60;99.90;;;;;;5055432;28;20170;-63
2021/03/14 02:13:47;;;;;;;0.70;0.60;;;5.70;99.90;;;;;;5049359;28;20257;-61
2021/03/14 02:16:17;;;;;;;0.60;0.50;;;5.50;99.90;;;;;;5046676;28;20527;-62
2021/03/14 02:18:45;;;;;;;0.80;0.60;;;5.30;99.90;;;;;;5043989;28;20449;-61
2021/03/14 02:21:12;;;;;;;0.60;0.50;;;5.20;99.90;;;;;;5048560;28;20484;-62
2021/03/14 02:23:56;;;;;;;0.80;0.70;;;5.30;99.90;;;;;;5055246;28;20429;-62
2021/03/14 02:26:29;;;;;;;3.13;1.03;;;5.30;99.90;;;;;;5046531;28;20468;-62
2021/03/14 02:28:55;;;;;;;1.23;0.60;;;5.30;99.90;;;;;;5037443;28;20908;-62
2021/03/14 02:31:24;;;;;;;0.87;0.70;;;5.20;99.90;;;;;;5043094;28;20466;-62
2021/03/14 02:33:54;;;;;;;1.67;0.63;;;5.30;99.90;;;;;;5055237;28;20803;-62
2021/03/14 02:36:21;;;;;;;0.80;0.60;;;5.30;99.90;;;;;;5051458;28;20509;-62
2021/03/14 02:38:48;;;;;;;0.90;0.70;;;5.20;99.90;;;;;;5041326;28;20460;-61
2021/03/14 02:41:15;;;;;;;1.40;0.87;;;5.10;99.90;;;;;;5031070;28;20429;-58
2021/03/14 02:43:41;;;;;;;0.80;0.70;;;5.10;99.90;;;;;;5040748;28;20805;-62
2021/03/14 02:46:07;;;;;;;1.10;0.90;;;5.00;99.90;;;;;;5054614;28;20433;-62
2021/03/14 02:48:36;;;;;;;1.30;0.80;;;5.00;99.90;;;;;;5043507;28;20418;-62
2021/03/14 02:51:03;;;;;;;1.37;0.90;;;5.00;99.90;;;;;;5034718;28;20402;-62
2021/03/14 02:53:30;;;;;;;2.57;1.43;;;5.10;99.90;;;;;;5034661;28;20440;-62
2021/03/14 02:55:57;;;;;;;0.90;0.80;;;5.10;99.90;;;;;;5048616;28;20496;-61
2021/03/14 02:58:25;;;;;;;1.37;0.87;;;5.20;99.90;;;;;;5054716;28;20452;-62
2021/03/14 03:00:52;;;;;;;1.03;0.93;;;5.20;99.90;;;;;;5053285;28;20499;-62
2021/03/14 03:03:25;;;;;;;1.33;0.90;;;5.20;99.90;;;;;;5054344;28;20420;-62
2021/03/14 03:05:58;;;;;;;1.47;0.70;;;5.10;99.90;;;;;;5036094;28;20447;-62
2021/03/14 03:08:25;;;;;;;0.70;0.70;;;5.10;99.90;;;;;;5043094;28;20850;-62
2021/03/14 03:10:53;;;;;;;2.30;0.97;;;5.20;99.90;;;;;;5039660;28;20801;-63
2021/03/14 03:13:19;;;;;;;1.33;0.90;;;5.20;99.90;;;;;;5046893;28;20449;-62
2021/03/14 03:15:46;;;;;;;0.80;0.80;;;5.20;99.90;;;;;;5053597;28;20467;-63
2021/03/14 03:18:13;;;;;;;1.77;1.00;;;5.00;99.90;;;;;;5037880;28;20454;-62
2021/03/14 03:20:39;;;;;;;1.10;0.70;;;4.90;99.90;;;;;;5033997;28;20402;-62
2021/03/14 03:23:06;;;;;;;0.80;0.63;;;4.80;99.90;;;;;;5036634;28;20410;-62
2021/03/14 03:25:32;;;;;;;1.40;0.70;;;4.90;99.90;;;;;;5052514;28;20443;-61
2021/03/14 03:27:57;;;;;;;0.80;0.80;;;4.90;99.90;;;;;;5045393;28;20503;-61
2021/03/14 03:30:26;;;;;;;2.70;0.80;;;4.90;99.90;;;;;;5058860;28;20917;-63
2021/03/14 03:32:52;;;;;;;0.83;0.73;;;4.90;99.90;;;;;;5056177;28;20546;-61
2021/03/14 03:35:19;;;;;;;0.97;0.80;;;4.90;99.90;;;;;;5033617;28;20953;-62
2021/03/14 03:37:46;;;;;;;1.63;0.90;;;5.00;99.90;;;;;;5031188;28;20457;-62
2021/03/14 03:40:15;;;;;;;0.80;0.80;;;5.20;99.90;;;;;;5033006;28;20501;-62
2021/03/14 03:43:03;;;;;;;1.10;1.03;;;5.10;99.90;;;;;;5033494;28;20438;-62
2021/03/14 03:45:32;;;;;;;1.07;1.00;;;5.00;99.90;;;;;;5033689;28;20863;-62
2021/03/14 03:47:59;;;;;;;1.00;0.67;;;5.00;99.90;;;;;;5034091;28;20410;-62
2021/03/14 03:50:26;;;;;;;2.00;0.90;;;5.20;99.90;;;;;;5042314;28;20471;-61
2021/03/14 03:52:54;;;;;;;0.90;0.80;;;5.10;99.90;;;;;;5052163;28;20410;-61
2021/03/14 03:55:21;;;;;;;1.63;1.20;;;5.30;99.90;;;;;;5052745;28;20416;-61
2021/03/14 03:57:48;;;;;;;0.80;0.70;;;5.20;99.90;;;;;;5053064;28;20483;-62
2021/03/14 04:00:16;;;;;;;0.97;0.63;;;5.20;99.90;;;;;;5053193;28;20405;-61
2021/03/14 04:02:43;;;;;;;0.70;0.70;;;5.30;99.90;;;;;;5053367;28;20463;-61
2021/03/14 04:05:10;;;;;;;0.97;0.80;;;5.30;99.90;;;;;;5047437;28;20863;-62
2021/03/14 04:07:42;;;;;;;0.80;0.80;;;5.20;99.90;;;;;;5047481;28;20464;-61
2021/03/14 04:10:10;;;;;;;1.10;1.00;;;5.20;99.90;;;;;;5040260;28;20532;-61
2021/03/14 04:12:38;;;;;;;1.30;1.20;;;5.20;99.90;;;;;;5052828;28;20429;-61
2021/03/14 04:15:11;;;;;;;1.53;1.10;;;5.20;99.90;;;;;;5053069;28;20409;-62
2021/03/14 04:17:38;;;;;;;0.80;0.80;;;5.30;99.90;;;;;;5039382;28;20444;-61
2021/03/14 04:20:14;;;;;;;1.30;1.20;;;5.30;99.90;;;;;;5037932;28;20414;-61
2021/03/14 04:22:45;;;;;;;0.90;0.80;;;5.20;99.90;;;;;;5037199;28;20434;-62
2021/03/14 04:25:12;;;;;;;1.00;0.90;;;5.20;99.90;;;;;;5053294;28;20385;-62
2021/03/14 04:27:39;;;;;;;1.30;1.20;;;5.30;99.90;;;;;;5053122;28;20410;-60
2021/03/14 04:30:06;;;;;;;1.33;1.23;;;5.10;99.90;;;;;;5044634;28;20428;-61
2021/03/14 04:32:32;;;;;;;1.10;1.00;;;5.10;99.90;;;;;;5051093;28;20429;-61
2021/03/14 04:34:58;;;;;;;1.13;1.03;;;5.10;99.90;;;;;;5036348;28;20421;-63
2021/03/14 04:37:24;;;;;;;2.53;1.50;;;5.10;99.90;;;;;;5032509;28;20481;-62
2021/03/14 04:39:50;;;;;;;1.17;1.00;;;5.00;99.90;;;;;;5033267;28;20441;-62
2021/03/14 04:42:16;;;;;;;1.40;1.30;;;4.90;99.90;;;;;;5032860;28;20168;-62
2021/03/14 04:44:42;;;;;;;1.33;1.00;;;4.80;99.90;;;;;;5033390;28;20406;-62
2021/03/14 04:47:08;;;;;;;3.13;1.00;;;4.80;99.90;;;;;;5043162;28;20867;-62
2021/03/14 04:49:34;;;;;;;1.60;1.10;;;5.00;99.90;;;;;;5056051;28;20505;-61
2021/03/14 04:52:01;;;;;;;1.07;0.97;;;4.90;99.90;;;;;;5036585;28;20179;-62
2021/03/14 04:54:27;;;;;;;1.33;1.00;;;4.90;99.90;;;;;;5032846;28;20167;-61
2021/03/14 04:56:54;;;;;;;1.40;1.20;;;4.80;99.90;;;;;;5040430;28;20594;-61
2021/03/14 04:59:21;;;;;;;1.63;0.70;;;4.60;99.90;;;;;;5052841;28;20406;-62
2021/03/14 05:01:49;;;;;;;1.10;1.00;;;4.60;99.90;;;;;;5053395;28;20492;-61
2021/03/14 05:04:19;;;;;;;1.90;1.00;;;4.70;99.90;;;;;;5053900;28;20891;-61
2021/03/14 05:06:45;;;;;;;2.23;0.93;;;4.70;99.90;;;;;;5042674;28;20524;-61
2021/03/14 05:09:15;;;;;;;1.10;0.87;;;4.60;99.90;;;;;;5050724;28;20471;-62
2021/03/14 05:11:43;;;;;;;2.80;1.00;;;4.50;99.90;;;;;;5053022;28;20457;-62
2021/03/14 05:14:10;;;;;;;1.17;1.07;;;4.60;99.90;;;;;;5051615;28;20921;-61
2021/03/14 05:16:37;;;;;;;1.30;1.20;;;4.50;99.90;;;;;;5050994;28;20933;-62
2021/03/14 05:19:03;;;;;;;2.10;1.37;;;4.50;99.90;;;;;;5044171;28;20436;-61
2021/03/14 05:21:31;;;;;;;1.00;0.93;;;4.60;99.90;;;;;;5052622;28;20402;-62
2021/03/14 05:23:58;;;;;;;1.77;1.10;;;4.60;99.90;;;;;;5052818;28;20389;-61
2021/03/14 05:26:24;;;;;;;1.27;1.17;;;4.60;99.90;;;;;;5042414;28;20832;-62
2021/03/14 05:28:51;;;;;;;2.80;1.00;;;4.50;99.90;;;;;;5075600;28;20408;-62
2021/03/14 05:31:34;;;;;;;3.63;1.20;;;4.50;99.90;;;;;;5047659;28;20489;-62
2021/03/14 05:34:03;;;;;;;2.30;0.90;;;4.30;99.90;;;;;;5042037;28;20447;-62
2021/03/14 05:36:29;;;;;;;2.67;1.17;;;4.40;99.90;;;;;;5042362;28;20445;-62
2021/03/14 05:38:57;;;;;;;0.90;0.80;;;4.50;99.90;;;;;;5035924;28;20805;-62
2021/03/14 05:41:23;;;;;;;0.90;0.77;;;4.50;99.90;;;;;;5035489;28;20523;-62
2021/03/14 05:43:50;;;;;;;1.30;0.70;;;4.60;99.90;;;;;;5036226;28;20489;-62
2021/03/14 05:46:16;;;;;;;1.60;0.90;;;4.70;99.90;;;;;;5032396;28;20237;-59
2021/03/14 05:48:43;;;;;;;0.93;0.80;;;4.60;99.90;;;;;;5035097;28;20973;-63
2021/03/14 05:51:09;;;;;;;1.47;0.80;;;4.60;99.90;;;;;;5035764;28;20398;-62
2021/03/14 05:53:40;;;;;;;4.70;1.10;;;4.60;99.90;;;;;;5047344;28;20488;-62
2021/03/14 05:56:09;;;;;;;3.30;1.00;;;4.50;99.90;;;;;;5057090;28;20448;-63
2021/03/14 05:58:36;;;;;;;0.97;0.90;;;4.60;99.90;;;;;;5053254;28;20976;-62
2021/03/14 06:01:07;;;;;;;1.37;0.97;;;4.60;99.90;;;;;;5054414;28;20432;-63
2021/03/14 06:03:36;;;;;;;1.80;1.10;;;4.60;99.90;;;;;;5055536;28;20386;-62
2021/03/14 06:06:03;;;;;;;1.43;0.90;;;4.80;99.90;;;;;;5041621;28;20429;-61
2021/03/14 06:08:31;;;;;;;2.40;1.10;;;4.70;99.90;;;;;;5054260;28;20397;-61
2021/03/14 06:10:58;;;;;;;1.40;0.90;;;4.80;99.90;;;;;;5035243;28;20425;-62
2021/03/14 06:13:23;;;;;;;3.00;1.07;;;4.90;99.90;;;;;;5043886;28;20468;-62
2021/03/14 06:15:49;;;;;;;1.67;1.00;;;5.10;99.90;;;;;;5047329;28;20437;-63
2021/03/14 06:18:15;;;;;;;3.50;1.10;;;5.10;99.90;;;;;;5051924;28;20195;-62
2021/03/14 06:20:41;;;;;;;2.77;1.30;;;5.20;99.90;;;;;;5035257;28;20651;-62
2021/03/14 06:23:08;;;;;;;1.73;0.90;;;4.90;99.90;;;;;;5035327;28;20167;-62
2021/03/14 06:25:34;;;;;;;2.83;1.37;;;4.80;99.90;;;;;;5045114;28;20429;-62
2021/03/14 06:27:59;;;;;;;3.80;1.40;;;4.90;99.90;;;;;;5033648;28;20422;-62
2021/03/14 06:30:27;;;;;;;2.70;1.27;;;4.80;99.90;;;;;;5035881;28;20414;-62
2021/03/14 06:33:15;;;;;;;2.83;1.60;;;4.70;99.90;;;;;;5041111;28;20167;-61
2021/03/14 06:35:42;;;;;;;1.77;1.00;;;4.80;99.90;;;;;;5055262;28;20420;-62
2021/03/14 06:38:32;;;;;;;1.60;1.50;;;5.00;99.90;;;;;;5049187;28;20453;-62
2021/03/14 06:41:07;;;;;;;2.33;1.40;;;5.00;99.90;;;;;;5045735;28;20438;-62
2021/03/14 06:43:34;;;;;;;2.73;1.47;;;5.10;99.90;;;;;;5046361;28;20849;-62
2021/03/14 06:46:01;;;;;;;4.07;1.60;;;5.20;99.90;;;;;;5041594;28;20426;-62
2021/03/14 06:48:27;;;;;;;2.20;1.70;;;5.40;99.90;;;;;;5034735;28;20505;-62
2021/03/14 06:50:53;;;;;;;1.73;1.33;;;5.60;99.90;;;;;;5035007;28;20398;-62
2021/03/14 06:53:24;;;;;;;4.13;1.73;;;5.70;99.90;;;;;;5035016;28;20398;-62
2021/03/14 06:55:52;;;;;;;1.70;1.60;;;5.50;99.90;;;;;;5033782;28;20523;-62
2021/03/14 06:58:19;;;;;;;2.33;1.20;;;5.40;99.90;;;;;;5034501;28;20469;-63
2021/03/14 07:01:20;;;;;;;3.63;2.57;;;5.40;99.90;;;;;;5034943;28;20834;-61
2021/03/14 07:03:50;;;;;;;6.07;1.80;;;5.50;99.90;;;;;;5034598;28;20417;-64
2021/03/14 07:06:24;;;;;;;3.93;1.60;;;5.40;99.90;;;;;;5030964;28;20470;-61
2021/03/14 07:08:57;;;;;;;1.50;1.20;;;5.30;99.90;;;;;;5043629;28;20426;-61
2021/03/14 07:11:33;;;;;;;4.67;2.07;;;5.30;99.90;;;;;;5034144;28;20448;-62
2021/03/14 07:13:59;;;;;;;2.90;1.70;;;5.40;99.90;;;;;;5048920;28;20408;-62
2021/03/14 07:16:47;;;;;;;2.37;1.80;;;5.40;99.90;;;;;;5048306;28;20517;-62
2021/03/14 07:19:15;;;;;;;2.23;1.70;;;5.40;99.90;;;;;;5038560;28;20452;-63
2021/03/14 07:21:40;;;;;;;2.03;1.77;;;5.30;99.90;;;;;;5041639;28;20437;-63
2021/03/14 07:24:11;;;;;;;1.93;1.40;;;5.50;99.90;;;;;;5043341;28;20441;-62
2021/03/14 07:26:45;;;;;;;2.67;1.43;;;5.70;99.90;;;;;;5053600;28;20194;-63
2021/03/14 07:29:12;;;;;;;6.60;1.63;;;5.50;99.90;;;;;;5054146;28;20912;-62
2021/03/14 07:31:38;;;;;;;7.37;1.57;;;5.60;99.90;;;;;;5054113;28;20771;-63
2021/03/14 07:34:05;;;;;;;3.43;1.30;;;5.70;99.90;;;;;;5051330;28;20405;-62
2021/03/14 07:36:31;;;;;;;2.30;1.60;;;6.00;99.90;;;;;;5048969;28;20429;-63
2021/03/14 07:38:58;;;;;;;5.27;1.80;;;6.20;99.90;;;;;;5051983;28;21040;-63
2021/03/14 07:41:25;;;;;;;3.43;1.60;;;6.40;99.90;;;;;;5035115;28;20479;-63
2021/03/14 07:43:52;;;;;;;2.10;1.20;;;6.80;99.90;;;;;;5033638;28;20421;-62
2021/03/14 07:46:22;;;;;;;3.73;1.70;;;6.70;99.90;;;;;;5033445;28;20425;-63
2021/03/14 07:48:50;;;;;;;5.63;1.53;;;6.70;99.90;;;;;;5033938;28;20410;-62
2021/03/14 07:51:22;;;;;;;4.70;1.73;;;6.60;99.90;;;;;;5039375;28;20417;-63
2021/03/14 07:53:49;;;;;;;4.03;1.30;;;6.70;99.90;;;;;;5041321;28;20417;-60
2021/03/14 07:56:15;;;;;;;3.40;1.55;;;6.70;99.90;;;;;;5049670;22;20471;31
2021/03/14 07:58:41;;;;;;;4.93;1.70;;;6.80;99.90;;;;;;5028630;28;20593;-64
2021/03/14 08:01:21;;;;;;;3.83;1.70;;;6.50;99.90;;;;;;5033364;28;20931;-64
2021/03/14 08:03:47;;;;;;;4.17;1.90;;;6.40;99.90;;;;;;5033146;28;20177;-64
2021/03/14 08:06:13;;;;;;;5.90;1.73;;;6.40;99.90;;;;;;5029347;28;20402;-65
2021/03/14 08:08:38;;;;;;;4.17;1.83;;;6.40;99.90;;;;;;5048750;28;20252;-64
2021/03/14 08:11:06;;;;;;;2.90;1.37;;;6.20;99.90;;;;;;5034156;28;20219;-64
2021/03/14 08:13:32;;;;;;;1.70;1.50;;;6.40;99.90;;;;;;5026275;28;20170;-64
2021/03/14 08:16:01;;;;;;;6.60;2.10;;;6.60;99.90;;;;;;5053018;28;20400;-64
2021/03/14 08:18:46;;;;;;;2.63;1.40;;;6.60;99.90;;;;;;5053047;28;20236;-64
2021/03/14 08:21:21;;;;;;;2.60;1.70;;;6.70;99.90;;;;;;5052821;28;20390;-64
2021/03/14 08:23:52;;;;;;;8.03;2.23;;;6.70;99.90;;;;;;5052368;28;20462;-64
2021/03/14 08:26:19;;;;;;;3.33;1.60;;;6.90;99.90;;;;;;5047803;28;20926;-64
2021/03/14 08:29:01;;;;;;;4.30;2.10;;;7.00;99.90;;;;;;5052662;28;20405;-64
2021/03/14 08:31:53;;;;;;;3.47;2.00;;;7.10;99.90;;;;;;5052819;28;20400;-64
2021/03/14 08:34:31;;;;;;;4.73;1.50;;;6.90;99.90;;;;;;5050488;28;20413;-64
2021/03/14 08:36:58;;;;;;;6.43;2.17;;;6.80;99.90;;;;;;5034328;28;20441;-63
2021/03/14 08:39:27;;;;;;;3.97;1.80;;;6.60;99.90;;;;;;5052438;28;20454;-64
2021/03/14 08:41:58;;;;;;;5.03;2.20;;;6.70;99.90;;;;;;5058137;28;20456;-64
2021/03/14 08:44:44;;;;;;;3.75;2.10;;;7.00;99.90;;;;;;5058362;28;20412;-63
2021/03/14 08:47:22;;;;;;;4.30;2.00;;;7.30;99.90;;;;;;5053981;28;20493;-65
2021/03/14 08:49:50;;;;;;;4.00;1.43;;;7.70;99.90;;;;;;5046511;28;20426;-64
2021/03/14 08:52:17;;;;;;;5.07;2.00;;;7.60;99.90;;;;;;5050475;28;20414;-64
2021/03/14 08:54:48;;;;;;;3.77;2.50;;;7.50;99.90;;;;;;5050479;28;20959;-64
2021/03/14 08:57:16;;;;;;;4.27;1.40;;;7.70;99.90;;;;;;5057599;28;20980;-65
2021/03/14 08:59:49;;;;;;;3.17;1.47;;;7.80;99.90;;;;;;5072707;28;20404;-64
2021/03/14 09:02:32;;;;;;;3.10;1.13;;;7.60;99.90;;;;;;5073425;28;20396;-64
2021/03/14 09:05:15;;;;;;;3.17;1.00;;;7.40;99.90;;;;;;5071103;28;20411;-65
2021/03/14 09:07:44;;;;;;;3.20;1.27;;;7.40;99.90;;;;;;5054863;28;20199;-64
2021/03/14 09:10:19;;;;;;;2.77;1.20;;;7.40;99.90;;;;;;5059288;28;20421;-64
2021/03/14 09:12:57;;;;;;;2.90;1.33;;;7.30;99.90;;;;;;5054974;28;20485;-64
2021/03/14 09:15:23;;;;;;;2.90;1.30;;;7.50;99.90;;;;;;5055694;28;20408;-65
2021/03/14 09:17:49;;;;;;;2.23;1.50;;;7.60;99.90;;;;;;5056129;28;20452;-65
2021/03/14 09:20:16;;;;;;;2.27;1.67;;;7.60;99.90;;;;;;5058745;28;20194;-64
2021/03/14 09:22:42;;;;;;;2.87;1.63;;;7.50;99.90;;;;;;5056482;28;20170;-64
2021/03/14 09:25:13;;;;;;;3.60;1.40;;;7.40;99.90;;;;;;5061851;28;20415;-63
2021/03/14 09:27:44;;;;;;;3.90;1.40;;;7.40;99.90;;;;;;5061793;28;20206;-64
2021/03/14 09:30:11;;;;;;;3.17;1.47;;;7.40;99.90;;;;;;5055793;28;20484;-64
2021/03/14 09:32:39;;;;;;;3.10;1.73;;;7.60;99.90;;;;;;5055968;28;20448;-64
2021/03/14 09:35:30;;;;;;;3.77;1.17;;;7.60;99.90;;;;;;5056182;28;20836;-64
2021/03/14 09:38:07;;;;;;;2.43;1.60;;;8.00;99.90;;;;;;5048686;28;20456;-65
2021/03/14 09:40:38;;;;;;;4.50;1.27;;;8.10;99.90;;;;;;5054181;28;20421;-64
2021/03/14 09:43:20;;;;;;;6.40;1.77;;;8.00;99.90;;;;;;5054915;28;20496;-64
2021/03/14 09:45:48;;;;;;;4.07;1.40;;;8.10;99.90;;;;;;5056033;28;20393;-65
2021/03/14 09:48:19;;;;;;;2.80;1.10;;;8.50;99.90;;;;;;5056102;28;20794;-65
2021/03/14 09:50:52;;;;;;;3.10;1.50;;;8.80;99.90;;;;;;5054820;28;20410;-64
2021/03/14 09:53:22;;;;;;;2.50;1.10;;;9.00;99.90;;;;;;5056230;28;20443;-64
2021/03/14 09:55:52;;;;;;;2.93;1.13;;;8.70;99.90;;;;;;5055537;28;20820;-64
2021/03/14 09:58:22;;;;;;;1.50;1.30;;;8.20;99.90;;;;;;5071271;28;20984;-64
2021/03/14 10:00:49;;;;;;;1.10;0.90;;;8.10;99.90;;;;;;5075808;28;20406;-64
2021/03/14 10:03:29;;;;;;;2.67;1.13;;;8.20;99.90;;;;;;5075549;28;20450;-64
2021/03/14 10:05:56;;;;;;;1.87;1.10;;;8.30;99.90;;;;;;5075886;28;20384;-64
2021/03/14 10:08:31;;;;;;;3.23;1.47;;;8.00;99.90;;;;;;5054760;28;20425;-64
2021/03/14 10:10:58;;;;;;;3.90;1.27;;;7.90;99.90;;;;;;5055282;28;20403;-64
2021/03/14 10:13:25;;;;;;;5.33;1.63;;;7.90;99.90;;;;;;5054519;28;20417;-64
2021/03/14 10:15:53;;;;;;;1.43;1.07;;;8.00;99.90;;;;;;5054916;28;20500;-64
2021/03/14 10:18:21;;;;;;;2.07;1.40;;;7.90;99.90;;;;;;5055085;28;20464;-64
2021/03/14 10:20:48;;;;;;;3.23;1.50;;;7.80;99.90;;;;;;5055420;28;20410;-64
2021/03/14 10:23:21;;;;;;;3.07;1.83;;;8.00;99.90;;;;;;5055548;28;20410;-64
2021/03/14 10:25:46;;;;;;;4.20;1.07;;;8.20;99.90;;;;;;5053960;28;20405;-65
2021/03/14 10:28:23;;;;;;;2.97;1.50;;;8.10;99.90;;;;;;5070175;28;20439;-64
2021/03/14 10:31:01;;;;;;;3.07;1.33;;;7.80;99.90;;;;;;5075301;28;20166;-64
2021/03/14 10:33:30;;;;;;;2.90;1.40;;;8.00;99.90;;;;;;5035686;28;20391;-64
2021/03/14 10:36:01;;;;;;;2.47;1.10;;;8.10;99.90;;;;;;5034870;28;20431;-67
2021/03/14 10:38:26;;;;;;;1.73;1.10;;;8.00;99.90;;;;;;5034899;28;20454;-65
2021/03/14 10:41:16;;;;;;;1.97;1.30;;;7.80;99.90;;;;;;5034679;28;20937;-65
2021/03/14 10:44:00;;;;;;;4.00;1.40;;;7.90;99.90;;;;;;5034659;28;20158;-64
2021/03/14 10:46:55;;;;;;;2.50;1.47;;;7.80;99.90;;;;;;5031934;28;20425;-65
2021/03/14 10:49:23;;;;;;;5.47;1.30;;;7.90;99.90;;;;;;5050800;28;20783;-65
2021/03/14 10:51:59;;;;;;;1.30;1.00;;;7.90;99.90;;;;;;5056984;28;20416;-65
2021/03/14 10:54:36;;;;;;;3.23;0.90;;;8.00;99.90;;;;;;5051508;28;20416;-64
2021/03/14 10:57:12;;;;;;;4.10;1.97;;;8.00;99.90;;;;;;5039483;28;20476;-65
2021/03/14 10:59:37;;;;;;;3.50;1.27;;;8.20;99.90;;;;;;5054326;28;20402;-64
2021/03/14 11:02:14;;;;;;;1.70;1.20;;;8.60;99.90;;;;;;5054317;28;20407;-64
2021/03/14 11:04:40;;;;;;;2.53;1.20;;;9.20;99.90;;;;;;5054616;28;20174;-64
2021/03/14 11:07:25;;;;;;;3.20;1.50;;;9.50;99.90;;;;;;5053583;28;20569;-64
2021/03/14 11:09:51;;;;;;;2.60;1.33;;;9.90;99.90;;;;;;5054440;28;20177;-64
2021/03/14 11:12:33;;;;;;;2.90;1.40;;;9.80;99.90;;;;;;5053606;28;20406;-64
2021/03/14 11:14:59;;;;;;;3.23;1.90;;;9.80;99.90;;;;;;5053991;28;20813;-64
2021/03/14 11:17:33;;;;;;;4.53;1.67;;;9.60;99.90;;;;;;5055974;28;20570;-64
2021/03/14 11:19:58;;;;;;;3.50;1.13;;;9.40;99.90;;;;;;5054001;28;20154;-64
2021/03/14 11:22:24;;;;;;;3.07;1.50;;;8.90;99.90;;;;;;5053711;28;20415;-64
2021/03/14 11:24:51;;;;;;;1.97;1.00;;;8.80;99.90;;;;;;5053697;28;20187;-64
2021/03/14 11:27:17;;;;;;;1.30;1.03;;;8.50;99.90;;;;;;5060839;28;20441;-64
2021/03/14 11:29:43;;;;;;;2.30;1.40;;;8.60;99.90;;;;;;5073677;28;20781;-64
2021/03/14 11:32:11;;;;;;;6.70;1.60;;;8.90;99.90;;;;;;5074226;28;20521;-64
2021/03/14 11:34:46;;;;;;;1.90;1.17;;;9.40;99.90;;;;;;5073625;28;20414;-62
2021/03/14 11:37:14;;;;;;;1.77;1.10;;;10.40;98.30;;;;;;5055963;28;20787;-65
2021/03/14 11:39:40;;;;;;;4.30;2.33;;;10.40;97.40;;;;;;5053238;28;20416;-65
2021/03/14 11:42:07;;;;;;;2.10;1.10;;;10.30;97.60;;;;;;5052599;28;20951;-65
2021/03/14 11:44:33;;;;;;;4.13;1.23;;;10.30;97.70;;;;;;5052986;28;20409;-64
2021/03/14 11:46:58;;;;;;;2.90;1.20;;;10.20;96.40;;;;;;5053206;28;20542;-65
2021/03/14 11:49:24;;;;;;;1.70;1.10;;;9.90;96.60;;;;;;5053108;28;20246;-65
2021/03/14 11:51:50;;;;;;;2.13;1.20;;;9.70;96.60;;;;;;5052794;28;20178;-65
2021/03/14 11:54:17;;;;;;;2.10;1.10;;;9.70;98.30;;;;;;5053132;28;20215;-65
2021/03/14 11:56:44;;;;;;;6.77;1.23;;;9.80;97.60;;;;;;5052246;28;20218;-64
2021/03/14 11:59:10;;;;;;;3.37;1.27;;;9.60;96.90;;;;;;5052959;28;20786;-64
2021/03/14 12:01:35;;;;;;;1.90;1.13;;;9.30;97.90;;;;;;5053086;28;20412;-64
2021/03/14 12:04:01;;;;;;;3.67;1.43;;;9.50;97.80;;;;;;5053260;28;20174;-65
2021/03/14 12:06:27;;;;;;;2.80;1.20;;;9.50;97.80;;;;;;5052129;28;20179;-65
2021/03/14 12:08:53;;;;;;;3.57;1.17;;;9.30;98.50;;;;;;5052770;28;20403;-63
2021/03/14 12:11:19;;;;;;;3.03;1.50;;;9.20;98.30;;;;;;5052884;28;20270;-64
2021/03/14 12:13:45;;;;;;;2.20;1.20;;;9.20;98.50;;;;;;5052686;28;20912;-65
2021/03/14 12:16:11;;;;;;;1.20;1.00;;;9.00;98.80;;;;;;5052929;28;20889;-64
2021/03/14 12:18:37;;;;;;;3.27;1.57;;;9.00;99.30;;;;;;5052560;28;20216;-64
2021/03/14 12:21:03;;;;;;;3.00;1.40;;;8.90;99.50;;;;;;5052791;28;20403;-65
2021/03/14 12:23:29;;;;;;;1.20;1.10;;;8.50;99.90;;;;;;5052882;28;20486;-65
2021/03/14 12:25:55;;;;;;;2.87;1.40;;;8.30;99.90;;;;;;5052713;28;20407;-64
2021/03/14 12:28:21;;;;;;;4.67;1.67;;;8.30;99.90;;;;;;5052347;28;20442;-64
2021/03/14 12:30:48;;;;;;;2.77;1.30;;;8.40;99.90;;;;;;5052534;28;20162;-64
2021/03/14 12:33:14;;;;;;;6.60;1.43;;;8.30;99.90;;;;;;5052507;28;20408;-64
2021/03/14 12:35:40;;;;;;;5.73;1.43;;;8.30;99.90;;;;;;5052512;28;20429;-64
2021/03/14 12:38:05;;;;;;;4.90;1.43;;;8.00;99.90;;;;;;5054281;28;20194;-64
2021/03/14 12:40:31;;;;;;;1.60;1.40;;;8.10;99.90;;;;;;5055348;28;20734;-64
2021/03/14 12:42:57;;;;;;;5.30;1.50;;;7.60;99.90;;;;;;5056401;28;20292;-64
2021/03/14 12:45:22;;;;;;;2.30;1.83;;;7.10;99.90;;;;;;5056956;28;20526;-64
2021/03/14 12:47:51;;;;;;;3.53;1.60;;;7.10;99.90;;;;;;5056879;28;20190;-64
2021/03/14 12:50:17;;;;;;;2.83;1.37;;;7.10;99.90;;;;;;5056940;28;20170;-64
2021/03/14 12:52:44;;;;;;;6.00;2.20;;;7.10;99.90;;;;;;5056742;28;20397;-64
2021/03/14 12:55:11;;;;;;;3.47;2.13;;;7.10;99.90;;;;;;5057300;28;20415;-64
2021/03/14 12:57:37;;;;;;;2.17;1.50;;;7.10;99.90;;;;;;5049287;28;20845;-64
2021/03/14 13:00:09;;;;;;;6.47;1.50;;;6.80;99.90;;;;;;5056029;28;20412;-64
2021/03/14 13:02:36;;;;;;;5.10;4.10;;;6.50;99.90;;;;;;5055711;28;20440;-64
2021/03/14 13:05:06;;;;;;;11.80;5.80;;;6.50;99.90;;;;;;5056430;28;20406;-64
2021/03/14 13:07:32;;;;;;;4.70;2.90;;;6.70;99.90;;;;;;5055825;28;20438;-63